Flight Track Log - Related Links

Times and Time Zones

All times are in EST time to prevent confusion due to time zone crossing. See the N589H flight status page for this flight to view local times or setup timezone preferences in your user account.

Time Position Orientation Groundspeed Altitude Reporting Facility
EST Latitude Longitude Course Direction KTS MPH feet Rate Location/Type
02:49AM 27.9000 -82.6833 180° South 133 153 500  Level Tampa TRACON
02:49AM 27.8833 -82.6833 180° South 152 175 1,100 2,077 Climbing Tampa TRACON
02:50AM 27.8500 -82.7000 204° Southwest 191 220 3,200 1,767 Climbing Tampa TRACON
02:52AM 27.7592 -82.6825 170° South 226 260 5,900 1,690 Climbing Miami Center
02:52AM 27.7261 -82.6692 160° South 216 249 7,200 2,103 Climbing Miami Center
02:53AM 27.6969 -82.6161 122° Southeast 190 219 9,300 2,103 Climbing Miami Center
02:54AM 27.6725 -82.5539 114° Southeast 195 224 11,300 1,412 Climbing Miami Center
02:55AM 27.6406 -82.4633 112° Southeast 243 280 12,100 1,150 Climbing Miami Center
02:56AM 27.6061 -82.3797 115° Southeast 277 319 13,600 1,500 Climbing Miami Center
02:57AM 27.5719 -82.2914 114° Southeast 293 337 15,100 1,426 Climbing Miami Center
02:58AM 27.5417 -82.2128 113° Southeast 303 349 16,500 1,450 Climbing Miami Center
02:59AM 27.5053 -82.1197 114° Southeast 303 349 18,000 1,576 Climbing Miami Center
03:00AM 27.4708 -82.0339 114° Southeast 303 349 19,600 1,450 Climbing Miami Center
03:01AM 27.4364 -81.9458 114° Southeast 309 356 20,900 1,091 Climbing Miami Center
03:02AM 27.4019 -81.8556 113° Southeast 304 350 21,800 950 Climbing Miami Center
03:03AM 27.3656 -81.7650 114° Southeast 330 380 22,800 1,041 Climbing Miami Center
03:04AM 27.3250 -81.6606 114° Southeast 356 410 23,900 1,140 Climbing Miami Center
03:05AM 27.2767 -81.5442 115° Southeast 367 422 25,100 1,050 Climbing Miami Center
03:06AM 27.2344 -81.4350 113° Southeast 367 422 26,000 807 Climbing Miami Center
03:07AM 27.1900 -81.3211 114° Southeast 373 429 26,700 661 Climbing Miami Center
03:08AM 27.1431 -81.2097 115° Southeast 385 443 27,300 600 Climbing Miami Center
03:09AM 27.0986 -81.0961 114° Southeast 390 449 27,900 590 Climbing Miami Center
03:10AM 27.0517 -80.9825 115° Southeast 395 455 28,500 550 Climbing Miami Center
03:11AM 27.0047 -80.8689 115° Southeast 395 455 29,000 454 Climbing Miami Center
03:12AM 26.9578 -80.7508 114° Southeast 395 455 29,400 400 Climbing Miami Center
03:13AM 26.9108 -80.6375 115° Southeast 400 460 29,800 403 Climbing Miami Center
03:14AM 26.8636 -80.5194 114° Southeast 405 466 30,200 341 Climbing Miami Center
03:15AM 26.8186 -80.4042 114° Southeast 405 466 30,500 350 Climbing Miami Center
03:16AM 26.7669 -80.2861 116° Southeast 411 473 30,900 359 Climbing Miami Center
03:17AM 26.7197 -80.1686 114° Southeast 411 473 31,200 393 Climbing Miami Center
03:18AM 26.6700 -80.0508 115° Southeast 411 473 31,700 634 Climbing Miami Center
03:19AM 26.6244 -79.9381 114° Southeast 405 466 32,500 763 Climbing Miami Center
03:20AM 26.5767 -79.8253 115° Southeast 400 460 33,200 564 Climbing Miami Center
03:21AM 26.5286 -79.7150 116° Southeast 400 460 33,600 347 Climbing Miami Center
03:22AM 26.4828 -79.6025 114° Southeast 394 453 33,900 295 Climbing Miami Center
03:23AM 26.4408 -79.4994 114° Southeast 399 459 34,200 298 Climbing Miami Center
03:24AM 26.3867 -79.3753 116° Southeast 404 465 34,500 305 Climbing Miami Center
03:25AM 26.3425 -79.2700 115° Southeast 404 465 34,800 203 Climbing Miami Center
03:26AM 26.2922 -79.1439 114° Southeast 404 465 34,900 100 Climbing Miami Center
03:27AM 26.2417 -79.0272 116° Southeast 404 465 35,000 50 Climbing Miami Center
03:28AM 26.1914 -78.9081 115° Southeast 409 471 35,000  Level Miami Center
03:29AM 26.1408 -78.7869 115° Southeast 409 471 35,000  Level Miami Center
03:30AM 26.0878 -78.6681 116° Southeast 420 483 35,000  Level Miami Center
03:31AM 26.0350 -78.5517 117° Southeast 426 490 35,000  Level Miami Center
03:32AM 25.9842 -78.4283 115° Southeast 426 490 35,000  Level Miami Center
03:33AM 25.9331 -78.3031 114° Southeast 432 497 35,000  Level Miami Center
03:34AM 25.8800 -78.1844 116° Southeast 432 497 35,000  Level Miami Center
03:35AM 25.8286 -78.0661 116° Southeast 426 490 35,000  Level Miami Center
03:36AM 25.7733 -77.9411 116° Southeast 431 496 35,000  Level Miami Center
03:37AM 25.7219 -77.8206 115° Southeast 431 496 35,000  Level Miami Center
03:38AM 25.6703 -77.7003 115° Southeast 431 496 35,000  Level Miami Center
03:39AM 25.6167 -77.5778 116° Southeast 431 496 35,000  Level Miami Center
03:40AM 25.5692 -77.4692 116° Southeast 431 496 35,000  Level Miami Center
03:41AM 25.5111 -77.3378 116° Southeast 431 496 35,000  Level Miami Center
03:42AM 25.4569 -77.2156 116° Southeast 431 496 35,000  Level Miami Center
03:43AM 25.4050 -77.0958 116° Southeast 431 496 35,000  Level Miami Center
03:44AM 25.3508 -76.9739 116° Southeast 431 496 35,000  Level Miami Center
03:45AM 25.2986 -76.8564 116° Southeast 426 490 35,000  Level Miami Center
03:46AM 25.2442 -76.7369 117° Southeast 431 496 35,000  Level Miami Center
03:47AM 25.1919 -76.6175 116° Southeast 431 496 35,000  Level Miami Center
03:48AM 25.1353 -76.4961 117° Southeast 431 496 35,000  Level Miami Center
03:49AM 25.0847 -76.3792 115° Southeast 431 496 35,000  Level Miami Center
03:50AM 25.0297 -76.2578 117° Southeast 431 496 35,000  Level Miami Center
03:51AM 24.9769 -76.1367 116° Southeast 431 496 35,000  Level Miami Center
03:52AM 24.9200 -76.0222 119° Southeast 426 490 35,000  Level Miami Center
03:53AM 24.8756 -75.9172 115° Southeast 426 490 35,000  Level Miami Center
03:54AM 24.8203 -75.7986 117° Southeast 426 490 35,000  Level Miami Center
03:55AM 24.7672 -75.6800 116° Southeast 426 490 35,000  Level Miami Center
03:56AM 24.7139 -75.5617 116° Southeast 426 490 35,000  Level Miami Center
03:57AM 24.6586 -75.4433 117° Southeast 431 496 35,000  Level Miami Center
03:58AM 24.6050 -75.3250 116° Southeast 426 490 35,000  Level Miami Center
03:59AM 24.5517 -75.2117 117° Southeast 426 490 35,000  Level Miami Center
04:00AM 24.4981 -75.0958 117° Southeast 426 490 35,000  Level Miami Center
04:01AM 24.4381 -74.9667 117° Southeast 426 490 35,000  Level Miami Center
04:02AM 24.3861 -74.8486 116° Southeast 431 496 35,000  Level Miami Center
04:03AM 24.3322 -74.7311 117° Southeast 426 490 35,000  Level Miami Center
04:04AM 24.2783 -74.6181 118° Southeast 426 490 35,000  Level Miami Center
04:05AM 24.2222 -74.5028 118° Southeast 426 490 35,000  Level Miami Center
04:06AM 24.1703 -74.3853 116° Southeast 426 490 35,000  Level Miami Center
04:07AM 24.1139 -74.2725 119° Southeast 426 490 35,000  Level Miami Center
04:08AM 24.0619 -74.1578 116° Southeast 421 484 35,000  Level Miami Center
04:09AM 24.0053 -74.0428 118° Southeast 427 491 35,000  Level Miami Center
04:10AM 23.9508 -73.9283 117° Southeast 427 491 35,000  Level Miami Center
04:11AM 23.8964 -73.8136 117° Southeast 427 491 35,000  Level Miami Center
04:12AM 23.8439 -73.6992 117° Southeast 419 482 35,000  Level Miami Center
04:13AM 23.7872 -73.5847 118° Southeast 419 482 35,000  Level Miami Center
04:14AM 23.7344 -73.4703 117° Southeast 426 490 35,000  Level Miami Center
04:15AM 23.6733 -73.3542 120° Southeast 431 496 35,000  Level Miami Center
04:16AM 23.6247 -73.2444 116° Southeast 426 490 35,000  Level Miami Center
04:17AM 23.5717 -73.1325 117° Southeast 418 481 35,000  Level Miami Center
04:18AM 23.5125 -73.0164 119° Southeast 418 481 35,000  Level Miami Center
04:19AM 23.4575 -72.9072 119° Southeast 418 481 35,000  Level Miami Center
04:20AM 23.4108 -72.8069 117° Southeast 412 474 35,000  Level Miami Center
04:21AM 23.3556 -72.6956 118° Southeast 407 468 35,000  Level Miami Center
04:22AM 23.3022 -72.5842 118° Southeast 407 468 35,000  Level Miami Center
04:23AM 23.2444 -72.4597 117° Southeast 407 468 35,000  Level Miami Center
04:24AM 23.1869 -72.3486 119° Southeast 412 474 35,000  Level Miami Center
04:25AM 23.1381 -72.2533 119° Southeast 407 468 35,000  Level Miami Center
04:26AM 23.0864 -72.1400 116° Southeast 407 468 35,000  Level Miami Center
04:27AM 23.0283 -72.0203 118° Southeast 402 463 35,000  Level Miami Center
04:28AM 22.9706 -71.9097 120° Southeast 402 463 35,000  Level Miami Center
04:29AM 22.9186 -71.7969 117° Southeast 402 463 35,000  Level Miami Center
04:30AM 22.8631 -71.6911 120° Southeast 407 468 35,000  Level Miami Center
04:31AM 22.8069 -71.5828 119° Southeast 402 463 35,000  Level Miami Center
04:32AM 22.7533 -71.4769 119° Southeast 402 463 35,000  Level Miami Center
04:33AM 22.7011 -71.3622 116° Southeast 402 463 35,000  Level Miami Center
04:34AM 22.6450 -71.2544 119° Southeast 402 463 35,000  Level Miami Center
04:35AM 22.5908 -71.1467 119° Southeast 408 470 35,000  Level Miami Center
04:36AM 22.5367 -71.0389 119° Southeast 402 463 35,000  Level Miami Center
04:37AM 22.4825 -70.9314 119° Southeast 402 463 35,000  Level Miami Center
04:38AM 22.4281 -70.8217 118° Southeast 402 463 35,000  Level Miami Center
04:39AM 22.3736 -70.7119 118° Southeast 402 463 35,000  Level Miami Center
04:40AM 22.3172 -70.6092 121° Southeast 402 463 35,000  Level Miami Center
04:41AM 22.2625 -70.4997 118° Southeast 402 463 35,000  Level Miami Center
04:42AM 22.2081 -70.3928 119° Southeast 407 468 35,000  Level Miami Center
04:43AM 22.1553 -70.2856 118° Southeast 402 463 35,000  Level Miami Center
04:44AM 22.1006 -70.1764 118° Southeast 402 463 35,000  Level Miami Center
04:45AM 22.0439 -70.0719 120° Southeast 402 463 35,000  Level Miami Center
04:46AM 21.9953 -69.9672 117° Southeast 402 463 35,000  Level Miami Center
04:47AM 21.9364 -69.8608 121° Southeast 402 463 35,000  Level Miami Center
04:48AM 21.8814 -69.7542 119° Southeast 402 463 35,000  Level Miami Center
04:49AM 21.8242 -69.6456 120° Southeast 402 463 35,000  Level Miami Center
04:50AM 21.7733 -69.5414 118° Southeast 402 463 35,000  Level Miami Center
04:51AM 21.7231 -69.4481 120° Southeast 402 463 35,000  Level Miami Center
04:52AM 21.6656 -69.3400 120° Southeast 402 463 35,000  Level Miami Center
04:53AM 21.6103 -69.2339 119° Southeast 407 468 35,000  Level Miami Center
04:54AM 21.5592 -69.1275 117° Southeast 407 468 35,000  Level Miami Center
04:55AM 21.5058 -69.0217 118° Southeast 402 463 35,000  Level Miami Center
04:56AM 21.4461 -68.9161 121° Southeast 402 463 35,000  Level Miami Center
04:57AM 21.3950 -68.8122 118° Southeast 402 463 35,000  Level Miami Center
04:58AM 21.3394 -68.7067 119° Southeast 402 463 35,000  Level Miami Center
04:59AM 21.2858 -68.6033 119° Southeast 408 470 35,000  Level Miami Center
05:00AM 21.2222 -68.5006 124° Southeast 403 464 35,000  Level Miami Center
05:01AM 21.1725 -68.3950 117° Southeast 403 464 35,000  Level Miami Center
05:02AM 21.1208 -68.2894 118° Southeast 403 464 35,000  Level Miami Center
05:03AM 21.0653 -68.1886 121° Southeast 397 457 35,000  Level Miami Center
05:04AM 21.0072 -68.0839 121° Southeast 397 457 35,000  Level Miami Center
05:05AM 20.9558 -67.9831 119° Southeast 397 457 35,000  Level Miami Center
05:06AM 20.9000 -67.8803 120° Southeast 397 457 35,000  Level Miami Center
05:07AM 20.8481 -67.7775 118° Southeast 397 457 35,000  Level Miami Center
05:08AM 20.7942 -67.6750 119° Southeast 397 457 35,000  Level Miami Center
05:09AM 20.7361 -67.5728 121° Southeast 397 457 35,000  Level Miami Center
05:11AM 20.6500 -67.4333 123° Southeast 390 449 35,000  Level San Juan Center
05:12AM 20.6000 -67.3333 118° Southeast 400 460 35,000  Level San Juan Center
05:13AM 20.5500 -67.2333 118° Southeast 390 449 35,000  Level San Juan Center
05:14AM 20.4833 -67.1333 125° Southeast 380 437 35,000  Level San Juan Center
05:15AM 20.4333 -67.0333 118° Southeast 390 449 35,000  Level San Juan Center
05:16AM 20.3833 -66.9333 118° Southeast 390 449 35,000  Level San Juan Center
05:17AM 20.3333 -66.8333 118° Southeast 380 437 35,000  Level San Juan Center
05:18AM 20.2667 -66.7333 125° Southeast 390 449 35,000  Level San Juan Center
05:19AM 20.2167 -66.6333 118° Southeast 390 449 35,000  Level San Juan Center
05:20AM 20.1667 -66.5333 118° Southeast 380 437 35,000  Level San Juan Center
05:21AM 20.1167 -66.4333 118° Southeast 390 449 35,000  Level San Juan Center
05:22AM 20.0500 -66.3333 125° Southeast 390 449 35,000  Level San Juan Center
05:23AM 20.0000 -66.2333 118° Southeast 390 449 35,000  Level San Juan Center
05:24AM 19.9500 -66.1333 118° Southeast 390 449 35,000  Level San Juan Center
05:25AM 19.9000 -66.0500 123° Southeast 390 449 35,000  Level San Juan Center
05:26AM 19.8333 -65.9500 125° Southeast 380 437 35,000  Level San Juan Center
05:27AM 19.7833 -65.8500 118° Southeast 370 426 35,000  Level San Juan Center
05:28AM 19.7333 -65.7500 118° Southeast 370 426 35,000  Level San Juan Center
05:29AM 19.6833 -65.6667 122° Southeast 370 426 35,000  Level San Juan Center
05:30AM 19.6333 -65.5667 118° Southeast 370 426 35,000  Level San Juan Center
05:31AM 19.5833 -65.4667 118° Southeast 370 426 35,000  Level San Juan Center
05:32AM 19.5333 -65.3833 122° Southeast 370 426 35,000  Level San Juan Center
05:33AM 19.4667 -65.2833 125° Southeast 370 426 35,000  Level San Juan Center
05:34AM 19.4167 -65.2000 122° Southeast 360 414 35,000  Level San Juan Center
05:35AM 19.3667 -65.1000 118° Southeast 370 426 35,000  Level San Juan Center
05:36AM 19.3167 -65.0000 118° Southeast 370 426 35,000  Level San Juan Center
05:37AM 19.2667 -64.9167 122° Southeast 360 414 35,000  Level San Juan Center
05:38AM 19.2000 -64.8167 125° Southeast 350 403 35,000  Level San Juan Center
05:39AM 19.1500 -64.7167 118° Southeast 350 403 35,000 -446 Level San Juan Center
05:40AM 19.1167 -64.6500 118° Southeast 350 403 34,100 -942 Descending San Juan Center
05:41AM 19.0500 -64.5333 121° Southeast 380 437 33,100 -950 Descending San Juan Center
05:42AM 19.0000 -64.4333 118° Southeast 370 426 32,200 -942 Descending San Juan Center
05:43AM 18.9333 -64.3333 125° Southeast 380 437 31,200 -942 Descending San Juan Center
05:44AM 18.8833 -64.2500 122° Southeast 360 414 30,300 -1,190 Descending San Juan Center
05:45AM 18.8333 -64.1500 118° Southeast 350 403 28,800 -1,537 Descending San Juan Center
05:46AM 18.7833 -64.0667 122° Southeast 350 403 27,200 -1,700 Descending San Juan Center
05:47AM 18.7333 -63.9833 122° Southeast 340 391 25,400 -1,884 Descending San Juan Center
05:48AM 18.6833 -63.9000 122° Southeast 350 403 23,400 -1,983 Descending San Juan Center
05:49AM 18.6333 -63.8167 122° Southeast 340 391 21,400 -2,050 Descending San Juan Center
05:50AM 18.6000 -63.7333 113° Southeast 310 357 19,300 -2,231 Descending San Juan Center
05:51AM 18.5500 -63.6500 122° Southeast 320 368 16,900 -2,361 Descending San Juan Center

Login

Don't have an account? Register now (free) for customized features, flight alerts, and more!